createdAt,value
2022-09-26T00:01:11.582Z,22.08
2022-09-26T00:03:47.441Z,22.07
2022-09-26T00:06:20.491Z,22.07
2022-09-26T00:08:53.558Z,22.06
2022-09-26T00:11:26.490Z,22.05
2022-09-26T00:13:59.504Z,22.05
2022-09-26T00:16:32.596Z,22.04
2022-09-26T00:19:05.631Z,22.04
2022-09-26T00:21:38.478Z,22.03
2022-09-26T00:24:11.553Z,22.02
2022-09-26T00:26:44.561Z,22.02
2022-09-26T00:29:17.484Z,22.01
2022-09-26T00:31:50.674Z,22.01
2022-09-26T00:34:23.525Z,22.00
2022-09-26T00:36:56.480Z,21.99
2022-09-26T00:39:29.576Z,21.99
2022-09-26T00:42:02.549Z,21.98
2022-09-26T00:44:35.555Z,21.98
2022-09-26T00:47:08.617Z,21.97
2022-09-26T00:49:41.564Z,21.97
2022-09-26T00:52:14.491Z,21.96
2022-09-26T00:54:47.541Z,21.95
2022-09-26T00:57:20.579Z,21.95
2022-09-26T00:59:53.501Z,21.94
2022-09-26T01:02:26.544Z,21.93
2022-09-26T01:04:59.580Z,21.93
2022-09-26T01:07:32.651Z,21.92
2022-09-26T01:10:05.624Z,21.91
2022-09-26T01:12:38.574Z,21.91
2022-09-26T01:15:11.662Z,21.90
2022-09-26T01:17:44.308Z,21.90
2022-09-26T01:20:17.558Z,21.89
2022-09-26T01:22:50.606Z,21.88
2022-09-26T01:25:23.557Z,21.88
2022-09-26T01:27:56.622Z,21.87
2022-09-26T01:30:29.714Z,21.87
2022-09-26T01:33:02.665Z,21.87
2022-09-26T01:35:35.646Z,21.86
2022-09-26T01:38:08.681Z,21.86
2022-09-26T01:40:41.790Z,21.85
2022-09-26T01:43:14.682Z,21.85
2022-09-26T01:45:47.651Z,21.84
2022-09-26T01:48:20.700Z,21.84
2022-09-26T01:50:59.396Z,21.83
2022-09-26T01:53:32.667Z,21.83
2022-09-26T01:56:05.679Z,21.82
2022-09-26T01:58:38.590Z,21.81
2022-09-26T02:01:11.686Z,21.81
2022-09-26T02:03:44.654Z,21.80
2022-09-26T02:06:17.616Z,21.80
2022-09-26T02:08:50.663Z,21.79
2022-09-26T02:11:23.538Z,21.79
2022-09-26T02:13:56.761Z,21.78
2022-09-26T02:16:29.697Z,21.78
2022-09-26T02:19:02.749Z,21.77
2022-09-26T02:21:35.640Z,21.77
2022-09-26T02:24:08.729Z,21.76
2022-09-26T02:26:41.698Z,21.76
2022-09-26T02:29:14.931Z,21.75
2022-09-26T02:31:47.786Z,21.75
2022-09-26T02:34:20.699Z,21.75
2022-09-26T02:36:53.672Z,21.74
2022-09-26T02:39:26.669Z,21.74
2022-09-26T02:41:59.676Z,21.73
2022-09-26T02:44:32.755Z,21.73
2022-09-26T02:47:05.770Z,21.72
2022-09-26T02:49:38.779Z,21.71
2022-09-26T02:52:11.803Z,21.71
2022-09-26T02:54:44.725Z,21.70
2022-09-26T02:57:17.763Z,21.70
2022-09-26T02:59:50.697Z,21.69
2022-09-26T03:02:23.768Z,21.69
2022-09-26T03:04:56.849Z,21.68
2022-09-26T03:07:29.765Z,21.68
2022-09-26T03:10:02.793Z,21.67
2022-09-26T03:12:35.808Z,21.67
2022-09-26T03:15:08.814Z,21.66
2022-09-26T03:17:41.503Z,21.66
2022-09-26T03:20:14.800Z,21.65
2022-09-26T03:22:47.814Z,21.65
2022-09-26T03:25:20.787Z,21.65
2022-09-26T03:27:53.871Z,21.64
2022-09-26T03:30:26.741Z,21.64
2022-09-26T03:32:59.774Z,21.63
2022-09-26T03:35:32.936Z,21.63
2022-09-26T03:38:05.741Z,21.62
2022-09-26T03:40:38.666Z,21.62
2022-09-26T03:43:11.750Z,21.61
2022-09-26T03:45:44.801Z,21.61
2022-09-26T03:48:17.784Z,21.60
2022-09-26T03:51:04.756Z,21.60
2022-09-26T03:53:37.779Z,21.60
2022-09-26T03:56:10.525Z,21.59
2022-09-26T03:58:43.909Z,21.59
2022-09-26T04:01:16.772Z,21.58
2022-09-26T04:03:51.115Z,21.58
2022-09-26T04:06:22.889Z,21.58
2022-09-26T04:08:55.606Z,21.57
2022-09-26T04:11:28.663Z,21.57
2022-09-26T04:14:01.524Z,21.56
2022-09-26T04:16:34.763Z,21.56
2022-09-26T04:19:07.849Z,21.56
2022-09-26T04:21:40.982Z,21.55
2022-09-26T04:24:13.653Z,21.55
2022-09-26T04:26:46.693Z,21.55
2022-09-26T04:29:19.624Z,21.55
2022-09-26T04:31:52.873Z,21.56
2022-09-26T04:34:27.392Z,21.56
2022-09-26T04:36:58.860Z,21.57
2022-09-26T04:39:31.638Z,21.57
2022-09-26T04:42:04.925Z,21.57
2022-09-26T04:44:37.578Z,21.57
2022-09-26T04:47:10.953Z,21.57
2022-09-26T04:49:43.872Z,21.57
2022-09-26T04:52:30.909Z,21.57
2022-09-26T04:55:03.587Z,21.57
2022-09-26T04:57:36.943Z,21.57
2022-09-26T05:00:09.895Z,21.57
2022-09-26T05:02:43.024Z,21.56
2022-09-26T05:05:15.917Z,21.56
2022-09-26T05:07:48.974Z,21.55
2022-09-26T05:10:22.057Z,21.55
2022-09-26T05:12:55.995Z,21.54
2022-09-26T05:15:28.919Z,21.53
2022-09-26T05:18:01.963Z,21.53
2022-09-26T05:20:37.671Z,21.52
2022-09-26T05:23:10.972Z,21.52
2022-09-26T05:25:43.993Z,21.51
2022-09-26T05:28:16.970Z,21.51
2022-09-26T05:30:50.019Z,21.50
2022-09-26T05:33:22.925Z,21.49
2022-09-26T05:35:55.934Z,21.49
2022-09-26T05:38:28.933Z,21.49
2022-09-26T05:41:02.174Z,21.48
2022-09-26T05:43:34.945Z,21.48
2022-09-26T05:46:08.047Z,21.47
2022-09-26T05:48:40.771Z,21.47
2022-09-26T05:51:14.036Z,21.46
2022-09-26T05:53:53.041Z,21.46
2022-09-26T05:56:25.968Z,21.45
2022-09-26T05:58:59.029Z,21.45
2022-09-26T06:01:32.020Z,21.44
2022-09-26T06:04:04.970Z,21.44
2022-09-26T06:06:38.067Z,21.43
2022-09-26T06:09:11.058Z,21.43
2022-09-26T06:11:44.062Z,21.43
2022-09-26T06:14:17.001Z,21.43
2022-09-26T06:16:50.157Z,21.43
2022-09-26T06:19:23.472Z,21.43
2022-09-26T06:21:56.107Z,21.44
2022-09-26T06:24:29.077Z,21.44
2022-09-26T06:27:02.022Z,21.45
2022-09-26T06:29:35.122Z,21.45
2022-09-26T06:32:08.161Z,21.45
2022-09-26T06:34:41.077Z,21.45
2022-09-26T06:37:14.017Z,21.46
2022-09-26T06:39:47.058Z,21.46
2022-09-26T06:42:20.114Z,21.46
2022-09-26T06:44:53.119Z,21.46
2022-09-26T06:47:26.091Z,21.46
2022-09-26T06:49:59.110Z,21.46
2022-09-26T06:52:32.079Z,21.46
2022-09-26T06:55:04.839Z,21.46
2022-09-26T06:57:38.094Z,21.46
2022-09-26T07:00:11.103Z,21.46
2022-09-26T07:02:44.076Z,21.46
2022-09-26T07:05:17.147Z,21.46
2022-09-26T07:07:50.133Z,21.46
2022-09-26T07:10:23.039Z,21.47
2022-09-26T07:12:56.150Z,21.47
2022-09-26T07:15:28.857Z,21.47
2022-09-26T07:18:02.140Z,21.47
2022-09-26T07:20:34.851Z,21.47
2022-09-26T07:23:08.121Z,21.47
2022-09-26T07:25:41.160Z,21.47
2022-09-26T07:28:14.126Z,21.47
2022-09-26T07:30:47.153Z,21.47
2022-09-26T07:33:20.191Z,21.47
2022-09-26T07:35:53.143Z,21.47
2022-09-26T07:38:26.173Z,21.47
2022-09-26T07:40:59.199Z,21.47
2022-09-26T07:44:06.393Z,21.47
2022-09-26T07:46:05.178Z,21.48
2022-09-26T07:48:38.170Z,21.48
2022-09-26T07:51:11.236Z,21.48
2022-09-26T07:53:44.145Z,21.48
2022-09-26T07:56:17.412Z,21.48
2022-09-26T07:58:50.123Z,21.49
2022-09-26T08:01:23.263Z,21.49
2022-09-26T08:03:56.160Z,21.49
2022-09-26T08:06:29.253Z,21.49
2022-09-26T08:09:02.248Z,21.49
2022-09-26T08:11:35.284Z,21.49
2022-09-26T08:14:08.225Z,21.49
2022-09-26T08:16:41.302Z,21.49
2022-09-26T08:19:14.376Z,21.50
2022-09-26T08:21:47.257Z,21.50
2022-09-26T08:24:20.244Z,21.50
2022-09-26T08:26:53.255Z,21.51
2022-09-26T08:29:26.279Z,21.51
2022-09-26T08:31:59.267Z,21.51
2022-09-26T08:34:32.268Z,21.51
2022-09-26T08:37:05.207Z,21.51
2022-09-26T08:39:38.248Z,21.52
2022-09-26T08:42:11.247Z,21.52
2022-09-26T08:44:44.257Z,21.52
2022-09-26T08:47:17.198Z,21.52
2022-09-26T08:49:50.469Z,21.52
2022-09-26T08:52:24.307Z,21.52
2022-09-26T08:54:57.230Z,21.52
2022-09-26T08:57:30.301Z,21.52
2022-09-26T09:00:03.317Z,21.53
2022-09-26T09:02:36.420Z,21.53
2022-09-26T09:05:09.353Z,21.54
2022-09-26T09:07:42.320Z,21.54
2022-09-26T09:10:15.215Z,21.55
2022-09-26T09:12:48.250Z,21.55
2022-09-26T09:15:25.743Z,21.55
2022-09-26T09:17:54.303Z,21.56
2022-09-26T09:20:27.268Z,21.56
2022-09-26T09:23:00.307Z,21.56
2022-09-26T09:25:37.186Z,21.56
2022-09-26T09:28:10.368Z,21.56
2022-09-26T09:30:43.359Z,21.56
2022-09-26T09:33:16.359Z,21.57
2022-09-26T09:35:49.244Z,21.57
2022-09-26T09:38:22.357Z,21.56
2022-09-26T09:40:55.617Z,21.56
2022-09-26T09:43:29.413Z,21.56
2022-09-26T09:46:02.342Z,21.56
2022-09-26T09:48:35.399Z,21.56
2022-09-26T09:51:08.356Z,21.56
2022-09-26T09:53:41.387Z,21.56
2022-09-26T09:56:14.328Z,21.56
2022-09-26T09:58:47.416Z,21.56
2022-09-26T10:01:20.366Z,21.56
2022-09-26T10:03:53.440Z,21.56
2022-09-26T10:06:46.457Z,21.56
2022-09-26T10:08:59.384Z,21.56
2022-09-26T10:11:32.401Z,21.56
2022-09-26T10:14:05.421Z,21.57
2022-09-26T10:16:38.444Z,21.57
2022-09-26T10:19:11.385Z,21.57
2022-09-26T10:21:44.433Z,21.57
2022-09-26T10:24:17.367Z,21.57
2022-09-26T10:26:50.479Z,21.57
2022-09-26T10:29:23.489Z,21.58
2022-09-26T10:31:56.565Z,21.58
2022-09-26T10:34:29.452Z,21.58
2022-09-26T10:37:02.442Z,21.58
2022-09-26T10:39:37.436Z,21.59
2022-09-26T10:42:10.396Z,21.59
2022-09-26T10:44:57.410Z,21.59
2022-09-26T10:47:30.359Z,21.60
2022-09-26T10:50:03.459Z,21.60
2022-09-26T10:52:36.588Z,21.61
2022-09-26T10:55:10.245Z,21.61
2022-09-26T10:57:43.670Z,21.61
2022-09-26T11:00:16.503Z,21.62
2022-09-26T11:02:49.513Z,21.62
2022-09-26T11:05:22.454Z,21.63
2022-09-26T11:07:55.467Z,21.63
2022-09-26T11:10:28.479Z,21.63
2022-09-26T11:13:01.504Z,21.64
2022-09-26T11:15:34.579Z,21.65
2022-09-26T11:18:07.457Z,21.65
2022-09-26T11:20:40.221Z,21.65
2022-09-26T11:23:13.536Z,21.65
2022-09-26T11:25:46.504Z,21.66
2022-09-26T11:28:19.543Z,21.66
2022-09-26T11:30:52.614Z,21.67
2022-09-26T11:33:25.582Z,21.67
2022-09-26T11:35:58.538Z,21.67
2022-09-26T11:38:31.532Z,21.68
2022-09-26T11:41:04.600Z,21.68
2022-09-26T11:43:41.347Z,21.68
2022-09-26T11:46:14.315Z,21.68
2022-09-26T11:48:47.249Z,21.68
2022-09-26T11:51:20.553Z,21.69
2022-09-26T11:53:53.233Z,21.69
2022-09-26T11:56:26.579Z,21.69
2022-09-26T11:58:59.527Z,21.70
2022-09-26T12:01:32.230Z,21.70
2022-09-26T12:04:05.640Z,21.71
2022-09-26T12:06:38.347Z,21.72
2022-09-26T12:09:11.233Z,21.73
2022-09-26T12:11:44.428Z,21.74
2022-09-26T12:14:17.322Z,21.74
2022-09-26T12:16:50.442Z,21.75
2022-09-26T12:19:23.389Z,21.75
2022-09-26T12:21:56.299Z,21.76
2022-09-26T12:24:29.240Z,21.76
2022-09-26T12:27:02.278Z,21.76
2022-09-26T12:29:35.389Z,21.76
2022-09-26T12:32:08.406Z,21.76
2022-09-26T12:34:41.259Z,21.76
2022-09-26T12:37:14.264Z,21.76
2022-09-26T12:39:47.446Z,21.75
2022-09-26T12:42:20.519Z,21.75
2022-09-26T12:44:53.597Z,21.75
2022-09-26T12:47:26.621Z,21.75
2022-09-26T12:49:59.554Z,21.75
2022-09-26T12:52:32.601Z,21.75
2022-09-26T12:55:05.338Z,21.75
2022-09-26T12:57:44.361Z,21.74
2022-09-26T13:00:17.598Z,21.74
2022-09-26T13:02:50.575Z,21.74
2022-09-26T13:05:23.418Z,21.74
2022-09-26T13:07:56.321Z,21.74
2022-09-26T13:10:29.521Z,21.73
2022-09-26T13:13:02.348Z,21.73
2022-09-26T13:15:35.628Z,21.73
2022-09-26T13:18:08.563Z,21.72
2022-09-26T13:20:41.674Z,21.72
2022-09-26T13:23:14.653Z,21.72
2022-09-26T13:25:49.944Z,21.71
2022-09-26T13:28:20.673Z,21.71
2022-09-26T13:30:53.800Z,21.71
2022-09-26T13:33:26.678Z,21.71
2022-09-26T13:35:59.711Z,21.71
2022-09-26T13:38:32.652Z,21.71
2022-09-26T13:41:05.591Z,21.70
2022-09-26T13:43:38.735Z,21.70
2022-09-26T13:46:11.719Z,21.70
2022-09-26T13:48:44.691Z,21.70
2022-09-26T13:51:17.633Z,21.70
2022-09-26T13:53:50.740Z,21.70
2022-09-26T13:56:23.730Z,21.70
2022-09-26T13:58:56.664Z,21.71
2022-09-26T14:01:29.789Z,21.71
2022-09-26T14:04:02.571Z,21.71
2022-09-26T14:06:35.721Z,21.72
2022-09-26T14:09:08.410Z,21.72
2022-09-26T14:11:41.699Z,21.72
2022-09-26T14:14:14.539Z,21.72
2022-09-26T14:16:47.433Z,21.72
2022-09-26T14:19:20.579Z,21.72
2022-09-26T14:21:53.457Z,21.72
2022-09-26T14:24:26.462Z,21.72
2022-09-26T14:26:59.747Z,21.71
2022-09-26T14:29:32.748Z,21.71
2022-09-26T14:32:05.707Z,21.71
2022-09-26T14:34:38.818Z,21.71
2022-09-26T14:37:11.695Z,21.71
2022-09-26T14:39:44.783Z,21.71
2022-09-26T14:42:17.742Z,21.70
2022-09-26T14:44:50.719Z,21.70
2022-09-26T14:47:23.578Z,21.70
2022-09-26T14:49:56.880Z,21.70
2022-09-26T14:52:29.778Z,21.70
2022-09-26T14:55:02.863Z,21.70
2022-09-26T14:57:35.785Z,21.70
2022-09-26T15:00:08.754Z,21.69
2022-09-26T15:02:41.995Z,21.69
2022-09-26T15:05:15.492Z,21.69
2022-09-26T15:07:48.613Z,21.69
2022-09-26T15:10:21.613Z,21.68
2022-09-26T15:12:54.544Z,21.68
2022-09-26T15:15:27.670Z,21.68
2022-09-26T15:18:00.537Z,21.68
2022-09-26T15:20:33.778Z,21.67
2022-09-26T15:23:06.825Z,21.67
2022-09-26T15:25:39.841Z,21.67
2022-09-26T15:28:12.530Z,21.66
2022-09-26T15:30:45.609Z,21.66
2022-09-26T15:33:18.807Z,21.66
2022-09-26T15:35:51.671Z,21.66
2022-09-26T15:38:24.634Z,21.65
2022-09-26T15:40:57.621Z,21.65
2022-09-26T15:43:30.543Z,21.65
2022-09-26T15:46:09.631Z,21.64
2022-09-26T15:48:36.559Z,21.64
2022-09-26T15:51:09.792Z,21.63
2022-09-26T15:53:42.887Z,21.63
2022-09-26T15:56:15.600Z,21.63
2022-09-26T15:58:48.828Z,21.63
2022-09-26T16:01:21.738Z,21.63
2022-09-26T16:03:54.704Z,21.62
2022-09-26T16:06:27.684Z,21.62
2022-09-26T16:09:00.767Z,21.62
2022-09-26T16:11:33.686Z,21.61
2022-09-26T16:14:06.613Z,21.61
2022-09-26T16:16:39.694Z,21.61
2022-09-26T16:19:13.363Z,21.60
2022-09-26T16:21:46.963Z,21.60
2022-09-26T16:24:19.991Z,21.60
2022-09-26T16:26:52.597Z,21.60
2022-09-26T16:29:25.750Z,21.59
2022-09-26T16:31:58.759Z,21.59
2022-09-26T16:34:31.640Z,21.59
2022-09-26T16:37:05.026Z,21.58
2022-09-26T16:39:37.608Z,21.58
2022-09-26T16:42:10.667Z,21.58
2022-09-26T16:44:43.893Z,21.58
2022-09-26T16:47:16.639Z,21.57
2022-09-26T16:49:49.987Z,21.57
2022-09-26T16:52:22.935Z,21.57
2022-09-26T16:54:55.996Z,21.57
2022-09-26T16:57:28.928Z,21.57
2022-09-26T17:00:01.933Z,21.56
2022-09-26T17:02:34.939Z,21.56
2022-09-26T17:05:07.699Z,21.55
2022-09-26T17:07:41.027Z,21.55
2022-09-26T17:10:13.737Z,21.55
2022-09-26T17:12:46.800Z,21.54
2022-09-26T17:15:19.702Z,21.54
2022-09-26T17:17:53.014Z,21.55
2022-09-26T17:20:26.246Z,21.55
2022-09-26T17:23:21.971Z,21.54
2022-09-26T17:25:35.673Z,21.54
2022-09-26T17:28:08.801Z,21.54
2022-09-26T17:30:41.870Z,21.54
2022-09-26T17:33:14.704Z,21.55
2022-09-26T17:35:47.749Z,21.55
2022-09-26T17:38:20.991Z,21.56
2022-09-26T17:40:53.935Z,21.57
2022-09-26T17:43:26.864Z,21.58
2022-09-26T17:45:59.767Z,21.58
2022-09-26T17:48:32.721Z,21.59
2022-09-26T17:51:05.877Z,21.60
2022-09-26T17:53:38.759Z,21.60
2022-09-26T17:56:11.739Z,21.61
2022-09-26T17:58:44.781Z,21.62
2022-09-26T18:01:17.874Z,21.63
2022-09-26T18:03:50.860Z,21.63
2022-09-26T18:06:23.742Z,21.64
2022-09-26T18:08:56.766Z,21.64
2022-09-26T18:11:29.755Z,21.65
2022-09-26T18:14:03.006Z,21.65
2022-09-26T18:16:35.884Z,21.65
2022-09-26T18:19:08.801Z,21.65
2022-09-26T18:21:41.941Z,21.65
2022-09-26T18:24:19.369Z,21.66
2022-09-26T18:26:47.798Z,21.66
2022-09-26T18:29:21.124Z,21.66
2022-09-26T18:31:53.805Z,21.67
2022-09-26T18:34:26.784Z,21.68
2022-09-26T18:36:59.967Z,21.69
2022-09-26T18:39:32.833Z,21.70
2022-09-26T18:42:05.944Z,21.71
2022-09-26T18:44:38.899Z,21.72
2022-09-26T18:47:12.088Z,21.73
2022-09-26T18:49:44.954Z,21.74
2022-09-26T18:52:17.807Z,21.75
2022-09-26T18:54:51.188Z,21.76
2022-09-26T18:57:24.089Z,21.78
2022-09-26T18:59:57.197Z,21.79
2022-09-26T19:02:30.270Z,21.80
2022-09-26T19:05:02.839Z,21.81
2022-09-26T19:07:35.896Z,21.82
2022-09-26T19:10:09.162Z,21.84
2022-09-26T19:12:41.967Z,21.85
2022-09-26T19:15:15.117Z,21.86
2022-09-26T19:17:47.941Z,21.86
2022-09-26T19:20:21.114Z,21.87
2022-09-26T19:22:53.982Z,21.88
2022-09-26T19:25:27.024Z,21.88
2022-09-26T19:28:00.114Z,21.89
2022-09-26T19:30:33.003Z,21.90
2022-09-26T19:33:06.006Z,21.91
2022-09-26T19:35:38.857Z,21.92
2022-09-26T19:38:12.088Z,21.92
2022-09-26T19:40:48.620Z,21.93
2022-09-26T19:43:18.177Z,21.94
2022-09-26T19:45:50.937Z,21.94
2022-09-26T19:48:23.966Z,21.95
2022-09-26T19:50:57.074Z,21.95
2022-09-26T19:53:30.019Z,21.96
2022-09-26T19:56:04.291Z,21.96
2022-09-26T19:58:37.004Z,21.97
2022-09-26T20:01:09.931Z,21.98
2022-09-26T20:03:43.096Z,21.99
2022-09-26T20:06:15.912Z,21.99
2022-09-26T20:08:49.005Z,22.00
2022-09-26T20:11:21.945Z,22.00
2022-09-26T20:13:55.199Z,22.00
2022-09-26T20:16:27.999Z,22.01
2022-09-26T20:19:00.945Z,22.01
2022-09-26T20:21:34.195Z,22.02
2022-09-26T20:24:07.376Z,22.02
2022-09-26T20:26:40.352Z,22.03
2022-09-26T20:29:13.238Z,22.04
2022-09-26T20:31:46.075Z,22.05
2022-09-26T20:34:19.071Z,22.05
2022-09-26T20:36:52.331Z,22.05
2022-09-26T20:39:25.182Z,22.05
2022-09-26T20:41:57.986Z,22.05
2022-09-26T20:44:31.008Z,22.05
2022-09-26T20:47:03.964Z,22.04
2022-09-26T20:49:37.155Z,22.04
2022-09-26T20:52:10.015Z,22.03
2022-09-26T20:54:43.356Z,22.03
2022-09-26T20:57:16.030Z,22.02
2022-09-26T20:59:49.106Z,22.01
2022-09-26T21:02:22.229Z,22.00
2022-09-26T21:04:55.182Z,21.99
2022-09-26T21:07:28.078Z,21.98
2022-09-26T21:10:00.988Z,21.97
2022-09-26T21:12:34.411Z,21.96
2022-09-26T21:15:07.303Z,21.96
2022-09-26T21:17:40.371Z,21.95
2022-09-26T21:20:13.338Z,21.93
2022-09-26T21:22:46.370Z,21.92
2022-09-26T21:25:19.324Z,21.91
2022-09-26T21:27:52.452Z,21.90
2022-09-26T21:30:25.411Z,21.89
2022-09-26T21:32:58.367Z,21.88
2022-09-26T21:35:31.395Z,21.87
2022-09-26T21:38:04.345Z,21.86
2022-09-26T21:40:37.244Z,21.85
2022-09-26T21:43:10.381Z,21.84
2022-09-26T21:45:43.512Z,21.83
2022-09-26T21:48:16.323Z,21.82
2022-09-26T21:50:51.919Z,21.81
2022-09-26T21:53:22.341Z,21.80
2022-09-26T21:55:55.437Z,21.79
2022-09-26T21:58:28.456Z,21.79
2022-09-26T22:01:01.485Z,21.78
2022-09-26T22:03:34.418Z,21.77
2022-09-26T22:06:07.753Z,21.77
2022-09-26T22:08:40.487Z,21.77
2022-09-26T22:11:13.342Z,21.76
2022-09-26T22:13:46.516Z,21.75
2022-09-26T22:16:19.435Z,21.75
2022-09-26T22:18:52.381Z,21.74
2022-09-26T22:21:25.441Z,21.73
2022-09-26T22:23:58.459Z,21.73
2022-09-26T22:26:31.447Z,21.72
2022-09-26T22:29:04.436Z,21.71
2022-09-26T22:31:37.412Z,21.71
2022-09-26T22:34:10.449Z,21.70
2022-09-26T22:36:43.496Z,21.69
2022-09-26T22:39:16.539Z,21.69
2022-09-26T22:41:49.470Z,21.68
2022-09-26T22:44:36.471Z,21.68
2022-09-26T22:47:09.509Z,21.67
2022-09-26T22:49:42.423Z,21.67
2022-09-26T22:52:15.428Z,21.66
2022-09-26T22:54:48.492Z,21.66
2022-09-26T22:57:21.493Z,21.65
2022-09-26T22:59:54.500Z,21.65
2022-09-26T23:02:27.627Z,21.65
2022-09-26T23:05:00.729Z,21.64
2022-09-26T23:07:34.558Z,21.63
2022-09-26T23:10:07.460Z,21.63
2022-09-26T23:12:40.588Z,21.62
2022-09-26T23:15:13.282Z,21.60
2022-09-26T23:17:46.551Z,21.60
2022-09-26T23:20:19.480Z,21.60
2022-09-26T23:22:52.547Z,21.59
2022-09-26T23:25:25.451Z,21.59
2022-09-26T23:27:58.543Z,21.58
2022-09-26T23:30:31.627Z,21.58
2022-09-26T23:33:04.595Z,21.57
2022-09-26T23:35:37.483Z,21.57
2022-09-26T23:38:10.608Z,21.57
2022-09-26T23:40:43.440Z,21.56
2022-09-26T23:43:16.570Z,21.56
2022-09-26T23:45:49.667Z,21.56
2022-09-26T23:48:22.538Z,21.55
2022-09-26T23:50:55.573Z,21.54
2022-09-26T23:53:28.565Z,21.53
2022-09-26T23:56:01.590Z,21.53
2022-09-26T23:58:34.508Z,21.53
